Iron Mountain, Michigan
Current Conditions -  °F | °C
As of 12:54 AM on Sunday 21 Dec 2014 (Local Time) from KIMT Reporting Station
Haze Haze  
Wind Chill: 20°   Ceiling: 2400
Heat Index: 27°   Visibility: 6mi
Dew Point: 23°   Wind: 6mph
Humidity: 85%   Direction: 170°S
Pressure: 30.14"   Gusts: NA
Location:  45.82°N, 88.06°W
Report Text: KIMT 210654Z AUTO 17005KT 6SM BR OVC024 M03/M05 A3014 RMK AO2 SLP225 T10281050
Loading
Personal Weather Stations






























Interactive Weather Map New forecast layout! Learn more

10-Day Weather Forecast

Advertisements
Track Severe Weather on mobile